sensor_id;sensor_type;location;lat;lon;timestamp;P1;durP1;ratioP1;P2;durP2;ratioP2
13605;SDS011;6874;52.084;5.090;2024-03-29T00:01:59;49.90;;;48.27;;
13605;SDS011;6874;52.084;5.090;2024-03-29T00:04:24;48.70;;;47.10;;
13605;SDS011;6874;52.084;5.090;2024-03-29T00:06:50;53.43;;;51.70;;
13605;SDS011;6874;52.084;5.090;2024-03-29T00:09:16;47.90;;;46.33;;
13605;SDS011;6874;52.084;5.090;2024-03-29T00:11:41;48.73;;;47.13;;
13605;SDS011;6874;52.084;5.090;2024-03-29T00:14:07;49.37;;;47.77;;
13605;SDS011;6874;52.084;5.090;2024-03-29T00:16:32;50.43;;;48.77;;
13605;SDS011;6874;52.084;5.090;2024-03-29T00:18:58;51.83;;;50.13;;
13605;SDS011;6874;52.084;5.090;2024-03-29T00:21:23;49.87;;;48.27;;
13605;SDS011;6874;52.084;5.090;2024-03-29T00:23:49;50.23;;;48.63;;
13605;SDS011;6874;52.084;5.090;2024-03-29T00:26:16;57.73;;;55.83;;
13605;SDS011;6874;52.084;5.090;2024-03-29T00:28:41;53.77;;;51.97;;
13605;SDS011;6874;52.084;5.090;2024-03-29T00:31:07;55.00;;;53.20;;
13605;SDS011;6874;52.084;5.090;2024-03-29T00:33:33;50.50;;;48.90;;
13605;SDS011;6874;52.084;5.090;2024-03-29T00:35:59;57.03;;;55.13;;
13605;SDS011;6874;52.084;5.090;2024-03-29T00:38:24;60.23;;;58.23;;
13605;SDS011;6874;52.084;5.090;2024-03-29T00:40:50;57.63;;;55.73;;
13605;SDS011;6874;52.084;5.090;2024-03-29T00:43:15;61.27;;;59.27;;
13605;SDS011;6874;52.084;5.090;2024-03-29T00:45:41;58.27;;;56.37;;
13605;SDS011;6874;52.084;5.090;2024-03-29T00:48:07;58.70;;;56.80;;
13605;SDS011;6874;52.084;5.090;2024-03-29T00:50:32;58.40;;;56.50;;
13605;SDS011;6874;52.084;5.090;2024-03-29T00:52:59;58.80;;;56.87;;
13605;SDS011;6874;52.084;5.090;2024-03-29T00:55:25;58.33;;;56.43;;
13605;SDS011;6874;52.084;5.090;2024-03-29T00:57:50;64.77;;;62.67;;
13605;SDS011;6874;52.084;5.090;2024-03-29T01:00:16;58.50;;;56.60;;
13605;SDS011;6874;52.084;5.090;2024-03-29T01:02:42;59.00;;;57.07;;
13605;SDS011;6874;52.084;5.090;2024-03-29T01:05:07;59.20;;;57.30;;
13605;SDS011;6874;52.084;5.090;2024-03-29T01:07:33;59.47;;;57.53;;
13605;SDS011;6874;52.084;5.090;2024-03-29T01:09:59;57.70;;;55.80;;
13605;SDS011;6874;52.084;5.090;2024-03-29T01:12:25;60.83;;;58.83;;
13605;SDS011;6874;52.084;5.090;2024-03-29T01:14:51;61.93;;;59.93;;
13605;SDS011;6874;52.084;5.090;2024-03-29T01:17:16;57.50;;;55.60;;
13605;SDS011;6874;52.084;5.090;2024-03-29T01:19:43;60.20;;;58.20;;
13605;SDS011;6874;52.084;5.090;2024-03-29T01:22:08;63.27;;;61.17;;
13605;SDS011;6874;52.084;5.090;2024-03-29T01:24:34;63.30;;;61.20;;
13605;SDS011;6874;52.084;5.090;2024-03-29T01:26:59;58.23;;;56.33;;
13605;SDS011;6874;52.084;5.090;2024-03-29T01:29:25;61.27;;;59.27;;
13605;SDS011;6874;52.084;5.090;2024-03-29T01:31:51;63.67;;;61.57;;
13605;SDS011;6874;52.084;5.090;2024-03-29T01:34:16;63.43;;;61.33;;
13605;SDS011;6874;52.084;5.090;2024-03-29T01:36:42;62.00;;;59.97;;
13605;SDS011;6874;52.084;5.090;2024-03-29T01:39:08;65.17;;;63.00;;
13605;SDS011;6874;52.084;5.090;2024-03-29T01:41:36;65.17;;;63.03;;
13605;SDS011;6874;52.084;5.090;2024-03-29T01:44:01;65.67;;;63.50;;
13605;SDS011;6874;52.084;5.090;2024-03-29T01:46:27;67.00;;;64.80;;
13605;SDS011;6874;52.084;5.090;2024-03-29T01:48:53;69.70;;;67.40;;
13605;SDS011;6874;52.084;5.090;2024-03-29T01:51:20;66.80;;;64.60;;
13605;SDS011;6874;52.084;5.090;2024-03-29T01:53:49;65.50;;;63.33;;
13605;SDS011;6874;52.084;5.090;2024-03-29T01:56:18;67.63;;;65.43;;
13605;SDS011;6874;52.084;5.090;2024-03-29T01:58:45;66.30;;;64.13;;
13605;SDS011;6874;52.084;5.090;2024-03-29T02:01:12;67.70;;;65.47;;
13605;SDS011;6874;52.084;5.090;2024-03-29T02:03:38;66.43;;;64.27;;
13605;SDS011;6874;52.084;5.090;2024-03-29T02:06:05;62.13;;;60.10;;
13605;SDS011;6874;52.084;5.090;2024-03-29T02:08:32;61.23;;;59.20;;
13605;SDS011;6874;52.084;5.090;2024-03-29T02:10:59;60.80;;;58.80;;
13605;SDS011;6874;52.084;5.090;2024-03-29T02:13:24;58.43;;;56.50;;
13605;SDS011;6874;52.084;5.090;2024-03-29T02:15:50;59.57;;;57.60;;
13605;SDS011;6874;52.084;5.090;2024-03-29T02:18:16;59.30;;;57.33;;
13605;SDS011;6874;52.084;5.090;2024-03-29T02:20:41;55.23;;;53.40;;
13605;SDS011;6874;52.084;5.090;2024-03-29T02:23:08;58.93;;;57.00;;
13605;SDS011;6874;52.084;5.090;2024-03-29T02:25:36;59.33;;;57.37;;
13605;SDS011;6874;52.084;5.090;2024-03-29T02:28:02;56.73;;;54.87;;
13605;SDS011;6874;52.084;5.090;2024-03-29T02:30:28;56.80;;;54.90;;
13605;SDS011;6874;52.084;5.090;2024-03-29T02:32:58;56.70;;;54.83;;
13605;SDS011;6874;52.084;5.090;2024-03-29T02:35:24;54.73;;;52.93;;
13605;SDS011;6874;52.084;5.090;2024-03-29T02:37:50;53.50;;;51.73;;
13605;SDS011;6874;52.084;5.090;2024-03-29T02:40:17;51.13;;;49.47;;
13605;SDS011;6874;52.084;5.090;2024-03-29T02:42:42;51.73;;;50.07;;
13605;SDS011;6874;52.084;5.090;2024-03-29T02:45:08;53.30;;;51.57;;
13605;SDS011;6874;52.084;5.090;2024-03-29T02:47:34;57.33;;;55.47;;
13605;SDS011;6874;52.084;5.090;2024-03-29T02:50:00;54.60;;;52.83;;
13605;SDS011;6874;52.084;5.090;2024-03-29T02:52:25;49.00;;;47.40;;
13605;SDS011;6874;52.084;5.090;2024-03-29T02:54:51;50.20;;;48.53;;
13605;SDS011;6874;52.084;5.090;2024-03-29T02:57:17;52.20;;;50.47;;
13605;SDS011;6874;52.084;5.090;2024-03-29T02:59:42;50.30;;;48.63;;
13605;SDS011;6874;52.084;5.090;2024-03-29T03:02:08;47.87;;;46.30;;
13605;SDS011;6874;52.084;5.090;2024-03-29T03:04:33;48.17;;;46.60;;
13605;SDS011;6874;52.084;5.090;2024-03-29T03:06:59;47.30;;;45.77;;
13605;SDS011;6874;52.084;5.090;2024-03-29T03:09:51;46.60;;;45.03;;
13605;SDS011;6874;52.084;5.090;2024-03-29T03:12:35;44.03;;;42.60;;
13605;SDS011;6874;52.084;5.090;2024-03-29T03:15:00;45.53;;;44.03;;
13605;SDS011;6874;52.084;5.090;2024-03-29T03:17:26;47.10;;;45.57;;
13605;SDS011;6874;52.084;5.090;2024-03-29T03:19:52;42.60;;;41.20;;
13605;SDS011;6874;52.084;5.090;2024-03-29T03:22:18;41.77;;;40.40;;
13605;SDS011;6874;52.084;5.090;2024-03-29T03:24:44;42.37;;;40.97;;
13605;SDS011;6874;52.084;5.090;2024-03-29T03:27:10;39.37;;;38.10;;
13605;SDS011;6874;52.084;5.090;2024-03-29T03:29:35;41.97;;;40.60;;
13605;SDS011;6874;52.084;5.090;2024-03-29T03:32:01;41.57;;;40.20;;
13605;SDS011;6874;52.084;5.090;2024-03-29T03:34:26;43.93;;;42.50;;
13605;SDS011;6874;52.084;5.090;2024-03-29T03:36:52;40.13;;;38.83;;
13605;SDS011;6874;52.084;5.090;2024-03-29T03:39:17;42.13;;;40.77;;
13605;SDS011;6874;52.084;5.090;2024-03-29T03:41:43;41.50;;;40.13;;
13605;SDS011;6874;52.084;5.090;2024-03-29T03:44:08;37.37;;;36.13;;
13605;SDS011;6874;52.084;5.090;2024-03-29T03:46:34;38.00;;;36.77;;
13605;SDS011;6874;52.084;5.090;2024-03-29T03:48:59;40.50;;;39.17;;
13605;SDS011;6874;52.084;5.090;2024-03-29T03:51:25;38.10;;;36.87;;
13605;SDS011;6874;52.084;5.090;2024-03-29T03:53:50;39.27;;;38.00;;
13605;SDS011;6874;52.084;5.090;2024-03-29T03:56:16;37.77;;;36.53;;
13605;SDS011;6874;52.084;5.090;2024-03-29T03:58:43;38.93;;;37.67;;
13605;SDS011;6874;52.084;5.090;2024-03-29T04:01:09;38.67;;;37.40;;
13605;SDS011;6874;52.084;5.090;2024-03-29T04:03:35;40.00;;;38.67;;
13605;SDS011;6874;52.084;5.090;2024-03-29T04:06:03;40.03;;;38.73;;
13605;SDS011;6874;52.084;5.090;2024-03-29T04:08:29;39.10;;;37.83;;
13605;SDS011;6874;52.084;5.090;2024-03-29T04:10:54;42.57;;;41.20;;
13605;SDS011;6874;52.084;5.090;2024-03-29T04:13:20;40.43;;;39.10;;
13605;SDS011;6874;52.084;5.090;2024-03-29T04:15:45;42.87;;;41.47;;
13605;SDS011;6874;52.084;5.090;2024-03-29T04:18:11;43.63;;;42.20;;
13605;SDS011;6874;52.084;5.090;2024-03-29T04:20:36;38.87;;;37.60;;
13605;SDS011;6874;52.084;5.090;2024-03-29T04:23:05;42.83;;;41.47;;
13605;SDS011;6874;52.084;5.090;2024-03-29T04:25:31;41.53;;;40.20;;
13605;SDS011;6874;52.084;5.090;2024-03-29T04:27:58;42.77;;;41.37;;
13605;SDS011;6874;52.084;5.090;2024-03-29T04:30:24;42.57;;;41.20;;
13605;SDS011;6874;52.084;5.090;2024-03-29T04:32:49;44.60;;;43.13;;
13605;SDS011;6874;52.084;5.090;2024-03-29T04:35:15;45.50;;;44.00;;
13605;SDS011;6874;52.084;5.090;2024-03-29T04:37:40;47.67;;;46.10;;
13605;SDS011;6874;52.084;5.090;2024-03-29T04:40:06;49.70;;;48.07;;
13605;SDS011;6874;52.084;5.090;2024-03-29T04:42:32;48.00;;;46.43;;
13605;SDS011;6874;52.084;5.090;2024-03-29T04:44:57;47.47;;;45.90;;
13605;SDS011;6874;52.084;5.090;2024-03-29T04:47:23;51.67;;;49.97;;
13605;SDS011;6874;52.084;5.090;2024-03-29T04:49:48;51.63;;;49.93;;
13605;SDS011;6874;52.084;5.090;2024-03-29T04:52:14;56.17;;;54.30;;
13605;SDS011;6874;52.084;5.090;2024-03-29T04:54:39;56.03;;;54.17;;
13605;SDS011;6874;52.084;5.090;2024-03-29T04:57:05;54.93;;;53.10;;
13605;SDS011;6874;52.084;5.090;2024-03-29T04:59:31;60.83;;;58.83;;
13605;SDS011;6874;52.084;5.090;2024-03-29T05:02:00;60.67;;;58.67;;
13605;SDS011;6874;52.084;5.090;2024-03-29T05:04:26;62.40;;;60.33;;
13605;SDS011;6874;52.084;5.090;2024-03-29T05:06:56;59.83;;;57.83;;
13605;SDS011;6874;52.084;5.090;2024-03-29T05:09:23;59.43;;;57.43;;
13605;SDS011;6874;52.084;5.090;2024-03-29T05:11:49;63.00;;;60.90;;
13605;SDS011;6874;52.084;5.090;2024-03-29T05:14:15;60.80;;;58.80;;
13605;SDS011;6874;52.084;5.090;2024-03-29T05:16:44;60.00;;;58.03;;
13605;SDS011;6874;52.084;5.090;2024-03-29T05:19:11;58.30;;;56.37;;
13605;SDS011;6874;52.084;5.090;2024-03-29T05:21:37;61.53;;;59.50;;
13605;SDS011;6874;52.084;5.090;2024-03-29T05:24:02;59.43;;;57.47;;
13605;SDS011;6874;52.084;5.090;2024-03-29T05:26:28;62.83;;;60.77;;
13605;SDS011;6874;52.084;5.090;2024-03-29T05:28:54;58.93;;;57.00;;
13605;SDS011;6874;52.084;5.090;2024-03-29T05:31:22;58.83;;;56.87;;
13605;SDS011;6874;52.084;5.090;2024-03-29T05:33:48;57.93;;;56.03;;
13605;SDS011;6874;52.084;5.090;2024-03-29T05:36:13;56.73;;;54.87;;
13605;SDS011;6874;52.084;5.090;2024-03-29T05:38:39;56.03;;;54.17;;
13605;SDS011;6874;52.084;5.090;2024-03-29T05:41:05;55.23;;;53.40;;
13605;SDS011;6874;52.084;5.090;2024-03-29T05:43:31;51.73;;;50.00;;
13605;SDS011;6874;52.084;5.090;2024-03-29T05:45:56;54.60;;;52.77;;
13605;SDS011;6874;52.084;5.090;2024-03-29T05:48:22;51.50;;;49.77;;
13605;SDS011;6874;52.084;5.090;2024-03-29T05:50:48;51.17;;;49.43;;
13605;SDS011;6874;52.084;5.090;2024-03-29T05:53:14;53.43;;;51.60;;
13605;SDS011;6874;52.084;5.090;2024-03-29T05:55:39;49.43;;;47.77;;
13605;SDS011;6874;52.084;5.090;2024-03-29T05:58:05;46.83;;;45.23;;
13605;SDS011;6874;52.084;5.090;2024-03-29T06:00:33;45.20;;;43.70;;
13605;SDS011;6874;52.084;5.090;2024-03-29T06:03:00;47.27;;;45.67;;
13605;SDS011;6874;52.084;5.090;2024-03-29T06:05:29;43.03;;;41.63;;
13605;SDS011;6874;52.084;5.090;2024-03-29T06:07:55;41.60;;;40.20;;
13605;SDS011;6874;52.084;5.090;2024-03-29T06:10:20;42.30;;;40.90;;
13605;SDS011;6874;52.084;5.090;2024-03-29T06:12:46;40.13;;;38.83;;
13605;SDS011;6874;52.084;5.090;2024-03-29T06:15:12;39.27;;;37.97;;
13605;SDS011;6874;52.084;5.090;2024-03-29T06:17:56;33.60;;;32.47;;
13605;SDS011;6874;52.084;5.090;2024-03-29T06:20:22;34.13;;;33.00;;
13605;SDS011;6874;52.084;5.090;2024-03-29T06:22:48;35.70;;;34.50;;
13605;SDS011;6874;52.084;5.090;2024-03-29T06:25:14;36.70;;;35.47;;
13605;SDS011;6874;52.084;5.090;2024-03-29T06:27:40;36.83;;;35.60;;
13605;SDS011;6874;52.084;5.090;2024-03-29T06:30:08;37.73;;;36.43;;
13605;SDS011;6874;52.084;5.090;2024-03-29T06:32:34;36.73;;;35.50;;
13605;SDS011;6874;52.084;5.090;2024-03-29T06:35:00;35.73;;;34.53;;
13605;SDS011;6874;52.084;5.090;2024-03-29T06:37:26;33.83;;;32.70;;
13605;SDS011;6874;52.084;5.090;2024-03-29T06:39:52;30.23;;;29.23;;
13605;SDS011;6874;52.084;5.090;2024-03-29T06:42:18;29.23;;;28.23;;
13605;SDS011;6874;52.084;5.090;2024-03-29T06:44:43;27.17;;;26.27;;
13605;SDS011;6874;52.084;5.090;2024-03-29T06:47:09;25.63;;;24.77;;
13605;SDS011;6874;52.084;5.090;2024-03-29T06:49:35;24.23;;;23.43;;
13605;SDS011;6874;52.084;5.090;2024-03-29T06:52:01;25.20;;;24.37;;
13605;SDS011;6874;52.084;5.090;2024-03-29T06:54:27;21.17;;;20.47;;
13605;SDS011;6874;52.084;5.090;2024-03-29T06:56:53;21.33;;;20.63;;
13605;SDS011;6874;52.084;5.090;2024-03-29T06:59:19;20.60;;;19.93;;
13605;SDS011;6874;52.084;5.090;2024-03-29T07:01:45;20.07;;;19.43;;
13605;SDS011;6874;52.084;5.090;2024-03-29T07:04:12;18.83;;;18.23;;
13605;SDS011;6874;52.084;5.090;2024-03-29T07:06:38;17.17;;;16.63;;
13605;SDS011;6874;52.084;5.090;2024-03-29T07:09:04;17.40;;;16.83;;
13605;SDS011;6874;52.084;5.090;2024-03-29T07:11:31;17.63;;;17.10;;
13605;SDS011;6874;52.084;5.090;2024-03-29T07:13:56;16.10;;;15.60;;
13605;SDS011;6874;52.084;5.090;2024-03-29T07:16:22;17.37;;;16.83;;
13605;SDS011;6874;52.084;5.090;2024-03-29T07:18:47;16.33;;;15.83;;
13605;SDS011;6874;52.084;5.090;2024-03-29T07:21:13;17.60;;;17.03;;
13605;SDS011;6874;52.084;5.090;2024-03-29T07:23:38;18.17;;;17.60;;
13605;SDS011;6874;52.084;5.090;2024-03-29T07:26:04;19.60;;;19.00;;
13605;SDS011;6874;52.084;5.090;2024-03-29T07:28:30;21.60;;;20.93;;
13605;SDS011;6874;52.084;5.090;2024-03-29T07:30:56;26.67;;;25.87;;
13605;SDS011;6874;52.084;5.090;2024-03-29T07:33:22;27.50;;;26.63;;
13605;SDS011;6874;52.084;5.090;2024-03-29T07:35:51;28.27;;;27.37;;
13605;SDS011;6874;52.084;5.090;2024-03-29T07:38:17;36.27;;;35.10;;
13605;SDS011;6874;52.084;5.090;2024-03-29T07:40:45;46.03;;;44.53;;
13605;SDS011;6874;52.084;5.090;2024-03-29T07:43:11;54.17;;;52.37;;
13605;SDS011;6874;52.084;5.090;2024-03-29T07:45:39;64.87;;;62.77;;
13605;SDS011;6874;52.084;5.090;2024-03-29T07:48:11;70.53;;;68.23;;
13605;SDS011;6874;52.084;5.090;2024-03-29T07:50:45;71.27;;;68.93;;
13605;SDS011;6874;52.084;5.090;2024-03-29T07:53:11;83.77;;;81.00;;
13605;SDS011;6874;52.084;5.090;2024-03-29T07:55:40;80.47;;;77.83;;
13605;SDS011;6874;52.084;5.090;2024-03-29T07:58:08;82.53;;;79.83;;
13605;SDS011;6874;52.084;5.090;2024-03-29T08:00:34;83.97;;;81.27;;
13605;SDS011;6874;52.084;5.090;2024-03-29T08:03:05;77.67;;;75.13;;
13605;SDS011;6874;52.084;5.090;2024-03-29T08:05:30;77.53;;;75.00;;
13605;SDS011;6874;52.084;5.090;2024-03-29T08:07:56;80.07;;;77.47;;
13605;SDS011;6874;52.084;5.090;2024-03-29T08:10:21;70.57;;;68.27;;
13605;SDS011;6874;52.084;5.090;2024-03-29T08:12:47;74.40;;;72.00;;
13605;SDS011;6874;52.084;5.090;2024-03-29T08:15:13;69.60;;;67.33;;
13605;SDS011;6874;52.084;5.090;2024-03-29T08:17:39;69.07;;;66.83;;
13605;SDS011;6874;52.084;5.090;2024-03-29T08:20:04;70.70;;;68.40;;
13605;SDS011;6874;52.084;5.090;2024-03-29T08:22:30;67.07;;;64.87;;
13605;SDS011;6874;52.084;5.090;2024-03-29T08:24:58;65.87;;;63.73;;
13605;SDS011;6874;52.084;5.090;2024-03-29T08:27:25;62.87;;;60.83;;
13605;SDS011;6874;52.084;5.090;2024-03-29T08:29:51;59.63;;;57.67;;
13605;SDS011;6874;52.084;5.090;2024-03-29T08:32:16;56.00;;;54.17;;
13605;SDS011;6874;52.084;5.090;2024-03-29T08:34:42;57.17;;;55.30;;
13605;SDS011;6874;52.084;5.090;2024-03-29T08:37:07;60.33;;;58.37;;
13605;SDS011;6874;52.084;5.090;2024-03-29T08:39:33;62.30;;;60.27;;
13605;SDS011;6874;52.084;5.090;2024-03-29T08:41:59;58.30;;;56.40;;
13605;SDS011;6874;52.084;5.090;2024-03-29T08:44:29;63.70;;;61.63;;
13605;SDS011;6874;52.084;5.090;2024-03-29T08:47:01;65.20;;;63.10;;
13605;SDS011;6874;52.084;5.090;2024-03-29T08:49:28;67.10;;;64.90;;
13605;SDS011;6874;52.084;5.090;2024-03-29T08:51:54;61.20;;;59.23;;
13605;SDS011;6874;52.084;5.090;2024-03-29T08:54:19;54.10;;;52.37;;
13605;SDS011;6874;52.084;5.090;2024-03-29T08:56:45;46.00;;;44.50;;
13605;SDS011;6874;52.084;5.090;2024-03-29T08:59:11;42.37;;;41.03;;
13605;SDS011;6874;52.084;5.090;2024-03-29T09:01:42;39.07;;;37.83;;
13605;SDS011;6874;52.084;5.090;2024-03-29T09:04:09;32.70;;;31.67;;
13605;SDS011;6874;52.084;5.090;2024-03-29T09:06:36;32.23;;;31.20;;
13605;SDS011;6874;52.084;5.090;2024-03-29T09:09:03;29.83;;;28.90;;
13605;SDS011;6874;52.084;5.090;2024-03-29T09:11:29;26.73;;;25.90;;
13605;SDS011;6874;52.084;5.090;2024-03-29T09:13:55;26.07;;;25.27;;
13605;SDS011;6874;52.084;5.090;2024-03-29T09:16:23;23.90;;;23.17;;
13605;SDS011;6874;52.084;5.090;2024-03-29T09:18:53;24.70;;;23.90;;
13605;SDS011;6874;52.084;5.090;2024-03-29T09:21:19;21.20;;;20.53;;
13605;SDS011;6874;52.084;5.090;2024-03-29T09:23:45;21.30;;;20.63;;
13605;SDS011;6874;52.084;5.090;2024-03-29T09:26:11;19.90;;;19.30;;
13605;SDS011;6874;52.084;5.090;2024-03-29T09:28:39;21.93;;;21.23;;
13605;SDS011;6874;52.084;5.090;2024-03-29T09:31:05;21.23;;;20.53;;
13605;SDS011;6874;52.084;5.090;2024-03-29T09:33:30;19.20;;;18.60;;
13605;SDS011;6874;52.084;5.090;2024-03-29T09:35:56;17.63;;;17.10;;
13605;SDS011;6874;52.084;5.090;2024-03-29T09:38:23;17.43;;;16.93;;
13605;SDS011;6874;52.084;5.090;2024-03-29T09:40:51;19.67;;;19.07;;
13605;SDS011;6874;52.084;5.090;2024-03-29T09:43:31;19.53;;;18.93;;
13605;SDS011;6874;52.084;5.090;2024-03-29T09:45:57;20.80;;;20.17;;
13605;SDS011;6874;52.084;5.090;2024-03-29T09:48:22;20.97;;;20.33;;
13605;SDS011;6874;52.084;5.090;2024-03-29T09:50:49;20.57;;;19.97;;
13605;SDS011;6874;52.084;5.090;2024-03-29T09:53:15;20.10;;;19.50;;
13605;SDS011;6874;52.084;5.090;2024-03-29T09:55:45;19.57;;;18.97;;
13605;SDS011;6874;52.084;5.090;2024-03-29T09:58:11;20.27;;;19.67;;
13605;SDS011;6874;52.084;5.090;2024-03-29T10:00:36;21.47;;;20.80;;
13605;SDS011;6874;52.084;5.090;2024-03-29T10:03:02;20.53;;;19.90;;
13605;SDS011;6874;52.084;5.090;2024-03-29T10:05:30;19.40;;;18.80;;
13605;SDS011;6874;52.084;5.090;2024-03-29T10:07:57;20.60;;;19.97;;
13605;SDS011;6874;52.084;5.090;2024-03-29T10:10:29;19.70;;;19.10;;
13605;SDS011;6874;52.084;5.090;2024-03-29T10:12:56;21.73;;;21.03;;
13605;SDS011;6874;52.084;5.090;2024-03-29T10:15:22;23.13;;;22.43;;
13605;SDS011;6874;52.084;5.090;2024-03-29T10:17:51;23.40;;;22.70;;
13605;SDS011;6874;52.084;5.090;2024-03-29T10:20:17;22.30;;;21.60;;
13605;SDS011;6874;52.084;5.090;2024-03-29T10:22:44;24.70;;;23.90;;
13605;SDS011;6874;52.084;5.090;2024-03-29T10:25:11;25.43;;;24.63;;
13605;SDS011;6874;52.084;5.090;2024-03-29T10:27:41;27.23;;;26.33;;
13605;SDS011;6874;52.084;5.090;2024-03-29T10:30:07;29.83;;;28.87;;
13605;SDS011;6874;52.084;5.090;2024-03-29T10:32:34;37.63;;;36.43;;
13605;SDS011;6874;52.084;5.090;2024-03-29T10:35:04;41.97;;;40.57;;
13605;SDS011;6874;52.084;5.090;2024-03-29T10:37:30;48.33;;;46.73;;
13605;SDS011;6874;52.084;5.090;2024-03-29T10:40:00;43.67;;;42.23;;
13605;SDS011;6874;52.084;5.090;2024-03-29T10:42:26;34.67;;;33.53;;
13605;SDS011;6874;52.084;5.090;2024-03-29T10:44:51;24.90;;;24.10;;
13605;SDS011;6874;52.084;5.090;2024-03-29T10:47:20;24.33;;;23.53;;
13605;SDS011;6874;52.084;5.090;2024-03-29T10:49:50;20.30;;;19.67;;
13605;SDS011;6874;52.084;5.090;2024-03-29T10:52:19;20.13;;;19.53;;
13605;SDS011;6874;52.084;5.090;2024-03-29T10:54:46;24.40;;;23.60;;
13605;SDS011;6874;52.084;5.090;2024-03-29T10:57:16;22.60;;;21.90;;
13605;SDS011;6874;52.084;5.090;2024-03-29T11:05:30;23.97;;;23.20;;
13605;SDS011;6874;52.084;5.090;2024-03-29T11:07:57;25.40;;;24.57;;
13605;SDS011;6874;52.084;5.090;2024-03-29T11:10:25;25.67;;;24.87;;
13605;SDS011;6874;52.084;5.090;2024-03-29T11:12:59;28.90;;;27.97;;
13605;SDS011;6874;52.084;5.090;2024-03-29T11:15:30;30.37;;;29.37;;
13605;SDS011;6874;52.084;5.090;2024-03-29T11:17:57;37.63;;;36.33;;
13605;SDS011;6874;52.084;5.090;2024-03-29T11:20:26;37.63;;;36.33;;
13605;SDS011;6874;52.084;5.090;2024-03-29T11:23:02;37.03;;;35.77;;
13605;SDS011;6874;52.084;5.090;2024-03-29T11:25:38;32.43;;;31.30;;
13605;SDS011;6874;52.084;5.090;2024-03-29T11:28:08;38.47;;;37.13;;
13605;SDS011;6874;52.084;5.090;2024-03-29T11:30:41;43.90;;;42.33;;
13605;SDS011;6874;52.084;5.090;2024-03-29T11:33:24;47.00;;;45.30;;
13605;SDS011;6874;52.084;5.090;2024-03-29T11:35:51;48.57;;;46.83;;
13605;SDS011;6874;52.084;5.090;2024-03-29T11:38:17;50.93;;;49.10;;
13605;SDS011;6874;52.084;5.090;2024-03-29T11:40:53;52.03;;;50.13;;
13605;SDS011;6874;52.084;5.090;2024-03-29T11:43:19;52.50;;;50.60;;
13605;SDS011;6874;52.084;5.090;2024-03-29T11:45:45;55.20;;;53.20;;
13605;SDS011;6874;52.084;5.090;2024-03-29T11:48:17;60.17;;;58.00;;
13605;SDS011;6874;52.084;5.090;2024-03-29T11:50:50;59.07;;;56.87;;
13605;SDS011;6874;52.084;5.090;2024-03-29T11:53:16;62.00;;;59.73;;
13605;SDS011;6874;52.084;5.090;2024-03-29T11:55:41;59.43;;;57.33;;
13605;SDS011;6874;52.084;5.090;2024-03-29T11:58:07;62.57;;;60.37;;
13605;SDS011;6874;52.084;5.090;2024-03-29T12:00:33;69.50;;;67.07;;
13605;SDS011;6874;52.084;5.090;2024-03-29T12:02:58;69.30;;;66.90;;
13605;SDS011;6874;52.084;5.090;2024-03-29T12:05:24;88.27;;;85.17;;
13605;SDS011;6874;52.084;5.090;2024-03-29T12:07:50;116.97;;;112.93;;
13605;SDS011;6874;52.084;5.090;2024-03-29T12:10:17;122.30;;;118.00;;
13605;SDS011;6874;52.084;5.090;2024-03-29T12:12:42;132.77;;;128.13;;
13605;SDS011;6874;52.084;5.090;2024-03-29T12:15:09;130.63;;;126.03;;
13605;SDS011;6874;52.084;5.090;2024-03-29T12:17:35;120.70;;;116.50;;
13605;SDS011;6874;52.084;5.090;2024-03-29T12:20:03;116.10;;;112.13;;
13605;SDS011;6874;52.084;5.090;2024-03-29T12:22:36;121.17;;;117.03;;
13605;SDS011;6874;52.084;5.090;2024-03-29T12:25:02;137.70;;;133.00;;
13605;SDS011;6874;52.084;5.090;2024-03-29T12:27:27;147.13;;;142.07;;
13605;SDS011;6874;52.084;5.090;2024-03-29T12:29:54;144.13;;;139.23;;
13605;SDS011;6874;52.084;5.090;2024-03-29T12:32:20;149.00;;;143.93;;
13605;SDS011;6874;52.084;5.090;2024-03-29T12:34:45;143.03;;;138.13;;
13605;SDS011;6874;52.084;5.090;2024-03-29T12:37:12;143.93;;;139.03;;
13605;SDS011;6874;52.084;5.090;2024-03-29T12:39:38;143.07;;;138.13;;
13605;SDS011;6874;52.084;5.090;2024-03-29T12:42:07;133.00;;;128.40;;
13605;SDS011;6874;52.084;5.090;2024-03-29T12:44:32;127.70;;;123.33;;
13605;SDS011;6874;52.084;5.090;2024-03-29T12:46:59;124.67;;;120.40;;
13605;SDS011;6874;52.084;5.090;2024-03-29T12:49:25;113.27;;;109.43;;
13605;SDS011;6874;52.084;5.090;2024-03-29T12:51:51;110.27;;;106.50;;
13605;SDS011;6874;52.084;5.090;2024-03-29T12:54:17;114.37;;;110.47;;
13605;SDS011;6874;52.084;5.090;2024-03-29T12:56:43;107.57;;;103.93;;
13605;SDS011;6874;52.084;5.090;2024-03-29T12:59:09;106.67;;;103.10;;
13605;SDS011;6874;52.084;5.090;2024-03-29T13:01:35;109.73;;;106.03;;
13605;SDS011;6874;52.084;5.090;2024-03-29T13:04:00;119.63;;;115.57;;
13605;SDS011;6874;52.084;5.090;2024-03-29T13:06:26;137.67;;;133.00;;
13605;SDS011;6874;52.084;5.090;2024-03-29T13:08:52;153.27;;;148.10;;
13605;SDS011;6874;52.084;5.090;2024-03-29T13:11:18;145.83;;;140.83;;
13605;SDS011;6874;52.084;5.090;2024-03-29T13:13:44;144.87;;;139.97;;
13605;SDS011;6874;52.084;5.090;2024-03-29T13:16:10;141.27;;;136.50;;
13605;SDS011;6874;52.084;5.090;2024-03-29T13:18:35;139.33;;;134.60;;
13605;SDS011;6874;52.084;5.090;2024-03-29T13:21:01;136.03;;;131.43;;
13605;SDS011;6874;52.084;5.090;2024-03-29T13:23:27;121.50;;;117.40;;
13605;SDS011;6874;52.084;5.090;2024-03-29T13:25:53;118.80;;;114.83;;
13605;SDS011;6874;52.084;5.090;2024-03-29T13:28:21;101.63;;;98.23;;
13605;SDS011;6874;52.084;5.090;2024-03-29T13:30:47;103.73;;;100.23;;
13605;SDS011;6874;52.084;5.090;2024-03-29T13:33:14;109.03;;;105.33;;
13605;SDS011;6874;52.084;5.090;2024-03-29T13:35:42;112.50;;;108.70;;
13605;SDS011;6874;52.084;5.090;2024-03-29T13:38:07;114.80;;;110.90;;
13605;SDS011;6874;52.084;5.090;2024-03-29T13:40:33;128.97;;;124.60;;
13605;SDS011;6874;52.084;5.090;2024-03-29T13:42:59;137.90;;;133.20;;
13605;SDS011;6874;52.084;5.090;2024-03-29T13:45:25;179.10;;;173.00;;
13605;SDS011;6874;52.084;5.090;2024-03-29T13:47:53;179.17;;;173.07;;
13605;SDS011;6874;52.084;5.090;2024-03-29T13:50:19;187.50;;;181.10;;
13605;SDS011;6874;52.084;5.090;2024-03-29T13:52:45;182.47;;;176.27;;
13605;SDS011;6874;52.084;5.090;2024-03-29T13:55:11;186.27;;;179.97;;
13605;SDS011;6874;52.084;5.090;2024-03-29T13:57:37;174.93;;;168.93;;
13605;SDS011;6874;52.084;5.090;2024-03-29T14:00:03;175.10;;;169.10;;
13605;SDS011;6874;52.084;5.090;2024-03-29T14:02:31;171.13;;;165.37;;
13605;SDS011;6874;52.084;5.090;2024-03-29T14:04:56;166.43;;;160.77;;
13605;SDS011;6874;52.084;5.090;2024-03-29T14:07:22;155.63;;;150.30;;
13605;SDS011;6874;52.084;5.090;2024-03-29T14:09:52;157.37;;;152.03;;
13605;SDS011;6874;52.084;5.090;2024-03-29T14:12:17;136.30;;;131.70;;
13605;SDS011;6874;52.084;5.090;2024-03-29T14:14:46;126.90;;;122.60;;
13605;SDS011;6874;52.084;5.090;2024-03-29T14:17:16;113.60;;;109.80;;
13605;SDS011;6874;52.084;5.090;2024-03-29T14:19:42;99.07;;;95.77;;
13605;SDS011;6874;52.084;5.090;2024-03-29T14:22:07;95.80;;;92.60;;
13605;SDS011;6874;52.084;5.090;2024-03-29T14:24:34;91.70;;;88.67;;
13605;SDS011;6874;52.084;5.090;2024-03-29T14:27:05;79.27;;;76.63;;
13605;SDS011;6874;52.084;5.090;2024-03-29T14:29:31;66.70;;;64.50;;
13605;SDS011;6874;52.084;5.090;2024-03-29T14:31:57;70.83;;;68.47;;
13605;SDS011;6874;52.084;5.090;2024-03-29T14:34:23;60.53;;;58.53;;